Time,TemperatureF,DewpointF,PressureIn,WindDirection,WindDirectionDegrees,WindSpeedMPH,WindSpeedGustMPH,Humidity,HourlyPrecipIn,Conditions,Clouds,dailyrainin,SoftwareType,DateUTC
2013-05-24 00:11:00,63.5,63.2,29.65,South,180,0.0,-999.0,99,-99.99,,,0.00,Acu-Link.com,2013-05-24 04:11:00,
2013-05-24 00:26:00,63.3,63.0,29.65,ESE,112,1.7,-999.0,99,-99.99,,,0.00,Acu-Link.com,2013-05-24 04:26:00,
2013-05-24 00:41:00,63.3,63.0,29.64,SSE,157,0.0,-999.0,99,-99.99,,,0.01,Acu-Link.com,2013-05-24 04:41:00,
2013-05-24 00:56:00,63.3,63.0,29.64,South,180,0.0,-999.0,99,-99.99,,,0.01,Acu-Link.com,2013-05-24 04:56:00,
2013-05-24 01:11:00,63.1,62.8,29.64,SSW,202,0.0,-999.0,99,-99.99,,,0.01,Acu-Link.com,2013-05-24 05:11:00,
2013-05-24 01:26:00,63.0,62.7,29.63,ESE,112,0.0,-999.0,99,-99.99,,,0.01,Acu-Link.com,2013-05-24 05:26:00,
2013-05-24 01:41:00,63.0,62.7,29.62,SSW,202,0.0,-999.0,99,-99.99,,,0.01,Acu-Link.com,2013-05-24 05:41:00,
2013-05-24 01:56:00,63.0,62.7,29.62,SW,225,0.0,-999.0,99,-99.99,,,0.01,Acu-Link.com,2013-05-24 05:56:00,
2013-05-24 02:12:00,62.8,62.5,29.61,SW,225,0.0,-999.0,99,-99.99,,,0.01,Acu-Link.com,2013-05-24 06:12:00,
2013-05-24 02:27:00,62.6,62.3,29.61,SW,225,0.0,-999.0,99,-99.99,,,0.01,Acu-Link.com,2013-05-24 06:27:00,
2013-05-24 02:42:00,62.4,62.1,29.61,SSE,157,0.0,-999.0,99,-99.99,,,0.01,Acu-Link.com,2013-05-24 06:42:00,
2013-05-24 02:57:00,62.2,61.9,29.61,South,180,0.0,-999.0,99,-99.99,,,0.01,Acu-Link.com,2013-05-24 06:57:00,
2013-05-24 03:12:00,61.9,61.6,29.61,SSE,157,0.0,-999.0,99,-99.99,,,0.01,Acu-Link.com,2013-05-24 07:12:00,
2013-05-24 03:27:00,61.3,61.0,29.62,WSW,247,0.0,-999.0,99,-99.99,,,0.02,Acu-Link.com,2013-05-24 07:27:00,
2013-05-24 03:42:00,61.0,60.7,29.61,SSW,202,0.0,-999.0,99,-99.99,,,0.02,Acu-Link.com,2013-05-24 07:42:00,
2013-05-24 03:57:00,60.6,60.3,29.61,West,270,0.0,-999.0,99,-99.99,,,0.02,Acu-Link.com,2013-05-24 07:57:00,
2013-05-24 04:12:00,60.4,60.1,29.61,SE,135,0.0,-999.0,99,-99.99,,,0.02,Acu-Link.com,2013-05-24 08:12:00,
2013-05-24 04:28:00,60.3,60.0,29.61,West,270,1.7,-999.0,99,-99.99,,,0.02,Acu-Link.com,2013-05-24 08:28:00,
2013-05-24 04:43:00,60.3,60.0,29.63,SSW,202,2.7,-999.0,99,-99.99,,,0.02,Acu-Link.com,2013-05-24 08:43:00,
2013-05-24 04:58:00,60.3,60.0,29.63,NNE,22,0.0,-999.0,99,-99.99,,,0.02,Acu-Link.com,2013-05-24 08:58:00,
2013-05-24 05:13:00,60.4,60.1,29.64,SW,225,2.7,-999.0,99,-99.99,,,0.02,Acu-Link.com,2013-05-24 09:13:00,
2013-05-24 05:28:00,59.7,59.4,29.67,NNE,22,10.9,-999.0,99,-99.99,,,0.02,Acu-Link.com,2013-05-24 09:28:00,
2013-05-24 05:44:00,56.5,55.1,29.69,NNW,337,5.3,-999.0,95,-99.99,,,0.02,Acu-Link.com,2013-05-24 09:44:00,
2013-05-24 05:59:00,55.0,52.7,29.70,North,0,5.3,-999.0,92,-99.99,,,0.02,Acu-Link.com,2013-05-24 09:59:00,
2013-05-24 06:14:00,54.9,52.3,29.71,NE,45,4.2,-999.0,91,-99.99,,,0.02,Acu-Link.com,2013-05-24 10:14:00,
2013-05-24 06:29:00,54.5,51.6,29.72,SW,225,4.2,-999.0,90,-99.99,,,0.02,Acu-Link.com,2013-05-24 10:29:00,
2013-05-24 06:44:00,54.3,51.4,29.74,West,270,3.2,-999.0,90,-99.99,,,0.02,Acu-Link.com,2013-05-24 10:44:00,
2013-05-24 06:59:00,53.8,50.3,29.75,West,270,2.7,-999.0,88,-99.99,,,0.02,Acu-Link.com,2013-05-24 10:59:00,
2013-05-24 07:14:00,53.6,49.8,29.76,WNW,292,3.7,-999.0,87,-99.99,,,0.02,Acu-Link.com,2013-05-24 11:14:00,
2013-05-24 07:29:00,53.4,49.6,29.78,SSE,157,2.7,-999.0,87,-99.99,,,0.02,Acu-Link.com,2013-05-24 11:29:00,
2013-05-24 07:45:00,53.2,49.1,29.78,WNW,292,7.3,-999.0,86,-99.99,,,0.02,Acu-Link.com,2013-05-24 11:45:00,
2013-05-24 08:00:00,52.2,49.4,29.79,NNE,22,5.8,-999.0,90,-99.99,,,0.02,Acu-Link.com,2013-05-24 12:00:00,
2013-05-24 08:15:00,51.6,49.1,29.79,NNW,337,3.2,-999.0,91,-99.99,,,0.02,Acu-Link.com,2013-05-24 12:15:00,
2013-05-24 08:30:00,51.4,48.3,29.80,West,270,8.9,-999.0,89,-99.99,,,0.02,Acu-Link.com,2013-05-24 12:30:00,
2013-05-24 08:45:00,51.4,47.7,29.80,NE,45,7.8,-999.0,87,-99.99,,,0.02,Acu-Link.com,2013-05-24 12:45:00,
2013-05-24 09:00:00,51.3,46.9,29.82,North,0,7.3,-999.0,85,-99.99,,,0.02,Acu-Link.com,2013-05-24 13:00:00,
2013-05-24 09:15:00,52.2,47.2,29.82,West,270,9.4,-999.0,83,-99.99,,,0.02,Acu-Link.com,2013-05-24 13:15:00,
2013-05-24 09:30:00,52.2,47.2,29.82,South,180,2.7,-999.0,83,-99.99,,,0.02,Acu-Link.com,2013-05-24 13:30:00,
2013-05-24 09:45:00,52.0,46.4,29.83,ESE,112,7.3,-999.0,81,-99.99,,,0.02,Acu-Link.com,2013-05-24 13:45:00,
2013-05-24 10:01:00,51.4,45.4,29.84,NNW,337,4.2,-999.0,80,-99.99,,,0.02,Acu-Link.com,2013-05-24 14:01:00,
2013-05-24 10:16:00,51.4,45.8,29.85,NE,45,3.7,-999.0,81,-99.99,,,0.02,Acu-Link.com,2013-05-24 14:16:00,
2013-05-24 10:31:00,52.2,45.6,29.85,ESE,112,7.3,-999.0,78,-99.99,,,0.02,Acu-Link.com,2013-05-24 14:31:00,
2013-05-24 10:46:00,51.4,44.8,29.85,West,270,5.3,-999.0,78,-99.99,,,0.02,Acu-Link.com,2013-05-24 14:46:00,
2013-05-24 11:01:00,52.2,45.2,29.87,South,180,6.8,-999.0,77,-99.99,,,0.02,Acu-Link.com,2013-05-24 15:01:00,
2013-05-24 11:16:00,52.2,44.9,29.86,East,90,8.3,-999.0,76,-99.99,,,0.02,Acu-Link.com,2013-05-24 15:16:00,
2013-05-24 11:31:00,52.9,44.8,29.87,NE,45,8.3,-999.0,74,-99.99,,,0.02,Acu-Link.com,2013-05-24 15:31:00,
2013-05-24 11:46:00,52.7,45.0,29.87,NNW,337,4.7,-999.0,75,-99.99,,,0.02,Acu-Link.com,2013-05-24 15:46:00,
2013-05-24 12:01:00,52.2,44.2,29.87,NNE,22,15.0,-999.0,74,-99.99,,,0.02,Acu-Link.com,2013-05-24 16:01:00,
2013-05-24 12:17:00,54.0,45.2,29.87,ESE,112,7.3,-999.0,72,-99.99,,,0.02,Acu-Link.com,2013-05-24 16:17:00,
2013-05-24 12:32:00,53.2,45.1,29.87,NNW,337,3.7,-999.0,74,-99.99,,,0.02,Acu-Link.com,2013-05-24 16:32:00,
2013-05-24 12:47:00,54.0,45.5,29.88,West,270,4.7,-999.0,73,-99.99,,,0.02,Acu-Link.com,2013-05-24 16:47:00,
2013-05-24 13:02:00,54.7,45.1,29.88,ENE,67,3.2,-999.0,70,-99.99,,,0.02,Acu-Link.com,2013-05-24 17:02:00,
2013-05-24 13:17:00,54.0,44.8,29.88,SW,225,7.8,-999.0,71,-99.99,,,0.02,Acu-Link.com,2013-05-24 17:17:00,
2013-05-24 13:32:00,53.6,43.7,29.89,North,0,9.9,-999.0,69,-99.99,,,0.02,Acu-Link.com,2013-05-24 17:32:00,
2013-05-24 13:47:00,54.1,44.5,29.90,NNE,22,6.3,-999.0,70,-99.99,,,0.02,Acu-Link.com,2013-05-24 17:47:00,
2013-05-24 14:02:00,54.7,45.1,29.89,NE,45,7.8,-999.0,70,-99.99,,,0.02,Acu-Link.com,2013-05-24 18:02:00,
2013-05-24 14:17:00,54.7,45.5,29.90,NE,45,6.3,-999.0,71,-99.99,,,0.02,Acu-Link.com,2013-05-24 18:17:00,
2013-05-24 14:33:00,55.4,45.0,29.90,NE,45,3.2,-999.0,68,-99.99,,,0.02,Acu-Link.com,2013-05-24 18:33:00,
2013-05-24 14:48:00,55.4,44.6,29.90,NNW,337,9.9,-999.0,67,-99.99,,,0.02,Acu-Link.com,2013-05-24 18:48:00,
2013-05-24 15:03:00,54.7,44.3,29.91,WSW,247,7.3,-999.0,68,-99.99,,,0.02,Acu-Link.com,2013-05-24 19:03:00,
2013-05-24 15:18:00,54.7,44.3,29.91,NE,45,7.8,-999.0,68,-99.99,,,0.02,Acu-Link.com,2013-05-24 19:18:00,
2013-05-24 15:33:00,54.7,44.0,29.91,WSW,247,10.4,-999.0,67,-99.99,,,0.02,Acu-Link.com,2013-05-24 19:33:00,
2013-05-24 15:48:00,54.5,43.0,29.91,ENE,67,11.9,-999.0,65,-99.99,,,0.02,Acu-Link.com,2013-05-24 19:48:00,
2013-05-24 16:03:00,55.4,43.4,29.91,SSW,202,13.5,-999.0,64,-99.99,,,0.02,Acu-Link.com,2013-05-24 20:03:00,
2013-05-24 16:18:00,55.0,43.0,29.92,ESE,112,4.7,-999.0,64,-99.99,,,0.02,Acu-Link.com,2013-05-24 20:18:00,
2013-05-24 16:33:00,55.9,43.1,29.92,NNE,22,8.9,-999.0,62,-99.99,,,0.02,Acu-Link.com,2013-05-24 20:33:00,
2013-05-24 16:49:00,55.4,42.6,29.92,NW,315,10.4,-999.0,62,-99.99,,,0.02,Acu-Link.com,2013-05-24 20:49:00,
2013-05-24 17:04:00,55.9,42.6,29.93,NW,315,6.8,-999.0,61,-99.99,,,0.02,Acu-Link.com,2013-05-24 21:04:00,
2013-05-24 17:19:00,57.7,43.0,29.93,SSW,202,5.3,-999.0,58,-99.99,,,0.02,Acu-Link.com,2013-05-24 21:19:00,
2013-05-24 17:34:00,55.6,41.1,29.93,North,0,9.9,-999.0,58,-99.99,,,0.02,Acu-Link.com,2013-05-24 21:34:00,
2013-05-24 17:49:00,55.9,41.3,29.94,ENE,67,5.8,-999.0,58,-99.99,,,0.02,Acu-Link.com,2013-05-24 21:49:00,
2013-05-24 18:04:00,55.6,40.6,29.94,North,0,5.8,-999.0,57,-99.99,,,0.02,Acu-Link.com,2013-05-24 22:04:00,
2013-05-24 18:19:00,54.5,40.0,29.95,NNE,22,3.7,-999.0,58,-99.99,,,0.02,Acu-Link.com,2013-05-24 22:19:00,
2013-05-24 18:34:00,54.5,39.6,29.95,NNE,22,4.7,-999.0,57,-99.99,,,0.02,Acu-Link.com,2013-05-24 22:34:00,
2013-05-24 18:49:00,53.1,40.0,29.96,NNE,22,8.3,-999.0,61,-99.99,,,0.02,Acu-Link.com,2013-05-24 22:49:00,
2013-05-24 19:05:00,52.7,39.2,29.96,NNE,22,4.2,-999.0,60,-99.99,,,0.02,Acu-Link.com,2013-05-24 23:05:00,
2013-05-24 19:20:00,52.2,38.7,29.96,NNW,337,11.4,-999.0,60,-99.99,,,0.02,Acu-Link.com,2013-05-24 23:20:00,
2013-05-24 19:35:00,51.4,38.8,29.97,South,180,9.9,-999.0,62,-99.99,,,0.02,Acu-Link.com,2013-05-24 23:35:00,
2013-05-24 19:50:00,51.1,38.5,29.98,SSE,157,2.7,-999.0,62,-99.99,,,0.02,Acu-Link.com,2013-05-24 23:50:00,
2013-05-24 20:05:00,50.7,38.6,29.99,SSW,202,6.8,-999.0,63,-99.99,,,0.02,Acu-Link.com,2013-05-25 00:05:00,
2013-05-24 20:20:00,50.2,38.1,30.00,NW,315,4.2,-999.0,63,-99.99,,,0.02,Acu-Link.com,2013-05-25 00:20:00,
2013-05-24 20:35:00,49.3,37.2,30.00,West,270,5.8,-999.0,63,-99.99,,,0.02,Acu-Link.com,2013-05-25 00:35:00,
2013-05-24 20:50:00,48.9,36.5,30.01,NE,45,6.8,-999.0,62,-99.99,,,0.02,Acu-Link.com,2013-05-25 00:50:00,
2013-05-24 21:05:00,48.2,36.2,30.01,NNE,22,7.3,-999.0,63,-99.99,,,0.02,Acu-Link.com,2013-05-25 01:05:00,
2013-05-24 21:21:00,47.7,36.1,30.02,West,270,2.7,-999.0,64,-99.99,,,0.02,Acu-Link.com,2013-05-25 01:21:00,
2013-05-24 21:36:00,47.3,36.5,30.03,SSE,157,2.7,-999.0,66,-99.99,,,0.02,Acu-Link.com,2013-05-25 01:36:00,
2013-05-24 21:51:00,47.1,36.7,30.04,SSW,202,7.8,-999.0,67,-99.99,,,0.02,Acu-Link.com,2013-05-25 01:51:00,
2013-05-24 22:06:00,46.9,36.5,30.04,WSW,247,2.7,-999.0,67,-99.99,,,0.02,Acu-Link.com,2013-05-25 02:06:00,
2013-05-24 22:21:00,46.6,36.2,30.04,SSE,157,8.3,-999.0,67,-99.99,,,0.02,Acu-Link.com,2013-05-25 02:21:00,
2013-05-24 22:36:00,46.4,35.3,30.05,SSW,202,4.7,-999.0,65,-99.99,,,0.02,Acu-Link.com,2013-05-25 02:36:00,
2013-05-24 22:51:00,46.6,34.7,30.05,West,270,11.9,-999.0,63,-99.99,,,0.02,Acu-Link.com,2013-05-25 02:51:00,
2013-05-24 23:06:00,46.2,33.9,30.06,South,180,1.7,-999.0,62,-99.99,,,0.02,Acu-Link.com,2013-05-25 03:06:00,
2013-05-24 23:21:00,45.7,34.2,30.06,WSW,247,3.7,-999.0,64,-99.99,,,0.02,Acu-Link.com,2013-05-25 03:21:00,
2013-05-24 23:37:00,45.1,34.4,30.05,SSW,202,2.7,-999.0,66,-99.99,,,0.02,Acu-Link.com,2013-05-25 03:37:00,
2013-05-24 23:52:00,44.8,34.1,30.05,North,0,5.3,-999.0,66,-99.99,,,0.02,Acu-Link.com,2013-05-25 03:52:00,